Terminal Aerodrome Forecast
Issued by NWS Twin Cities, MN

Home | Current Version | Previous Version | Graphics & Text | Print | Product List | Glossary On
Versions: 1 2 3 4 5 6 7 8 9 10 11 12
000
FTUS43 KMPX 131100
TAFSTC
TAF
KSTC 131122Z 1312/1412 VRB02KT P6SM SKC
     FM131400 19007KT P6SM SKC
     FM131700 19013G20KT P6SM BKN250
     FM140000 18008KT P6SM SCT110
     FM140900 24007KT P6SM FEW110=

USA.gov is the U.S. government's official web portal to all federal, state and local government web resources and services.